Time;durP1;ratioP1;P1;durP2;ratioP2;P2;SDS_P1;SDS_P2;PMS_P1;PMS_P2;Temp;Humidity;BMP_temperature;BMP_pressure;BME280_temperature;BME280_humidity;BME280_pressure;Samples;Min_cycle;Max_cycle;Signal;HPM_P1;HPM_P2
2021/08/28 00:01:37;;;;;;;14.25;5.25;;;;;;;;;;4982954;28;20471;-78
2021/08/28 00:04:03;;;;;;;10.48;4.97;;;;;;;;;;4984034;28;20046;-78
2021/08/28 00:06:28;;;;;;;14.95;5.90;;;;;;;;;;4982873;28;20052;-78
2021/08/28 00:08:53;;;;;;;10.20;4.93;;;;;;;;;;4983651;28;20031;-78
2021/08/28 00:11:20;;;;;;;20.10;5.63;;;;;;;;;;4985388;28;20121;-78
2021/08/28 00:13:46;;;;;;;10.93;4.80;;;;;;;;;;4984351;28;20034;-79
2021/08/28 00:16:12;;;;;;;12.48;5.18;;;;;;;;;;4979702;28;20091;-78
2021/08/28 00:18:37;;;;;;;18.15;5.68;;;;;;;;;;4986296;28;20533;-78
2021/08/28 00:21:03;;;;;;;12.52;5.47;;;;;;;;;;4983974;28;20022;-78
2021/08/28 00:23:29;;;;;;;30.95;5.78;;;;;;;;;;4985104;28;20054;-78
2021/08/28 00:25:54;;;;;;;14.80;5.25;;;;;;;;;;4964938;28;20050;-78
2021/08/28 00:28:20;;;;;;;14.98;6.32;;;;;;;;;;4984260;28;20110;-78
2021/08/28 00:30:45;;;;;;;15.07;5.80;;;;;;;;;;4976476;28;20037;-78
2021/08/28 00:33:13;;;;;;;14.15;5.53;;;;;;;;;;4986874;28;20053;-78
2021/08/28 00:35:39;;;;;;;13.10;5.60;;;;;;;;;;4982524;28;20309;-78
2021/08/28 00:38:05;;;;;;;12.85;5.57;;;;;;;;;;5001393;28;20063;-78
2021/08/28 00:40:31;;;;;;;17.67;5.80;;;;;;;;;;4985439;28;20034;-78
2021/08/28 00:42:57;;;;;;;12.45;5.88;;;;;;;;;;4986118;28;20035;-79
2021/08/28 00:45:30;;;;;;;12.13;5.85;;;;;;;;;;4979903;28;20053;-78
2021/08/28 00:48:00;;;;;;;17.10;6.05;;;;;;;;;;4978639;28;20172;-78
2021/08/28 00:50:26;;;;;;;16.35;5.72;;;;;;;;;;4983717;28;20068;-77
2021/08/28 00:52:54;;;;;;;15.45;5.40;;;;;;;;;;4981336;28;20019;-78
2021/08/28 00:55:27;;;;;;;15.75;6.20;;;;;;;;;;4975470;28;20030;-77
2021/08/28 00:57:54;;;;;;;19.98;5.90;;;;;;;;;;4972021;28;20487;-78
2021/08/28 01:00:20;;;;;;;15.63;5.85;;;;;;;;;;4984522;28;20136;-78
2021/08/28 01:02:47;;;;;;;14.80;6.38;;;;;;;;;;4987944;28;20511;-78
2021/08/28 01:05:19;;;;;;;14.50;5.78;;;;;;;;;;4988020;28;20611;-78
2021/08/28 01:08:17;;;;;;;12.80;5.78;;;;;;;;;;4989462;28;20599;-78
2021/08/28 01:10:50;;;;;;;17.73;6.32;;;;;;;;;;4984841;28;20035;-78
2021/08/28 01:13:17;;;;;;;11.40;5.50;;;;;;;;;;4987596;28;20037;-78
2021/08/28 01:15:45;;;;;;;11.52;5.32;;;;;;;;;;4989277;28;20029;-78
2021/08/28 01:18:13;;;;;;;13.88;5.40;;;;;;;;;;4987811;28;20037;-78
2021/08/28 01:20:45;;;;;;;20.83;5.82;;;;;;;;;;4986290;28;20534;-78
2021/08/28 01:23:11;;;;;;;;;;;;;;;;;;4986811;28;20031;-77
2021/08/28 01:25:38;;;;;;;17.02;5.28;;;;;;;;;;4987645;28;19925;-79
2021/08/28 01:28:12;;;;;;;12.70;5.60;;;;;;;;;;4971495;28;20030;-77
2021/08/28 01:30:43;;;;;;;14.38;6.38;;;;;;;;;;4988394;28;20038;-78
2021/08/28 01:33:10;;;;;;;15.02;5.68;;;;;;;;;;4986610;28;20106;-79
2021/08/28 01:35:37;;;;;;;12.23;5.82;;;;;;;;;;4980471;28;20066;-79
2021/08/28 01:38:03;;;;;;;11.48;5.47;;;;;;;;;;4989920;28;20038;-79
2021/08/28 01:40:30;;;;;;;11.40;5.85;;;;;;;;;;4982213;28;20113;-78
2021/08/28 01:42:56;;;;;;;14.15;5.90;;;;;;;;;;4988381;28;20518;-78
2021/08/28 01:45:23;;;;;;;15.77;5.90;;;;;;;;;;4981553;28;20046;-78
2021/08/28 01:47:52;;;;;;;13.25;6.18;;;;;;;;;;4983307;28;20046;-78
2021/08/28 01:50:20;;;;;;;12.75;6.30;;;;;;;;;;4986568;28;20053;-78
2021/08/28 01:52:47;;;;;;;11.25;5.53;;;;;;;;;;4985667;28;20043;-78
2021/08/28 01:55:12;;;;;;;18.73;5.65;;;;;;;;;;4989498;28;20064;-78
2021/08/28 01:57:38;;;;;;;12.70;5.80;;;;;;;;;;4984549;28;20054;-78
2021/08/28 02:00:05;;;;;;;15.75;6.53;;;;;;;;;;4984134;28;20035;-78
2021/08/28 02:02:31;;;;;;;15.50;6.15;;;;;;;;;;4980225;28;20126;-78
2021/08/28 02:04:56;;;;;;;15.77;6.00;;;;;;;;;;4986146;28;20113;-78
2021/08/28 02:07:34;;;;;;;11.70;5.72;;;;;;;;;;4986008;28;20235;-78
2021/08/28 02:10:06;;;;;;;18.30;5.80;;;;;;;;;;4985545;28;20037;-78
2021/08/28 02:12:43;;;;;;;19.42;6.28;;;;;;;;;;4987185;28;20037;-78
2021/08/28 02:15:15;;;;;;;17.38;5.85;;;;;;;;;;4983901;28;20034;-78
2021/08/28 02:17:46;;;;;;;14.75;5.85;;;;;;;;;;4986562;28;20045;-78
2021/08/28 02:20:15;;;;;;;12.40;6.22;;;;;;;;;;4987752;28;20045;-78
2021/08/28 02:22:45;;;;;;;12.60;5.88;;;;;;;;;;4985109;28;20030;-78
2021/08/28 02:25:24;;;;;;;16.70;6.45;;;;;;;;;;4974818;28;20045;-78
2021/08/28 02:27:55;;;;;;;13.48;5.85;;;;;;;;;;4987580;28;20037;-78
2021/08/28 02:30:21;;;;;;;14.55;6.07;;;;;;;;;;4986667;28;20042;-78
2021/08/28 02:32:50;;;;;;;14.32;6.43;;;;;;;;;;4985801;28;20049;-78
2021/08/28 02:35:17;;;;;;;13.52;6.03;;;;;;;;;;4987682;28;20057;-78
2021/08/28 02:37:44;;;;;;;16.75;6.70;;;;;;;;;;4987131;28;20153;-78
2021/08/28 02:40:12;;;;;;;15.52;5.65;;;;;;;;;;4987836;28;20034;-78
2021/08/28 02:42:40;;;;;;;15.35;6.20;;;;;;;;;;4978821;28;20042;-78
2021/08/28 02:45:06;;;;;;;10.43;5.72;;;;;;;;;;4986775;28;20030;-78
2021/08/28 02:47:33;;;;;;;15.48;5.78;;;;;;;;;;4972459;28;20070;-78
2021/08/28 02:49:59;;;;;;;13.02;5.32;;;;;;;;;;4986651;28;20078;-78
2021/08/28 02:52:28;;;;;;;11.20;5.45;;;;;;;;;;4982304;28;20108;-78
2021/08/28 02:54:57;;;;;;;18.02;5.82;;;;;;;;;;4984509;28;20034;-78
2021/08/28 02:57:24;;;;;;;15.50;5.72;;;;;;;;;;4983438;28;20122;-78
2021/08/28 02:59:50;;;;;;;11.10;5.85;;;;;;;;;;4983757;28;20211;-78
2021/08/28 03:02:18;;;;;;;14.10;6.03;;;;;;;;;;4977514;28;20117;-78
2021/08/28 03:04:44;;;;;;;13.48;6.00;;;;;;;;;;4984120;28;20026;-78
2021/08/28 03:07:11;;;;;;;13.10;5.40;;;;;;;;;;4972461;28;20038;-78
2021/08/28 03:09:38;;;;;;;10.75;5.43;;;;;;;;;;4984341;28;20034;-78
2021/08/28 03:12:04;;;;;;;11.65;5.40;;;;;;;;;;4987068;28;20037;-78
2021/08/28 03:14:30;;;;;;;21.33;6.60;;;;;;;;;;4990545;28;20109;-78
2021/08/28 03:16:56;;;;;;;17.75;5.55;;;;;;;;;;4986758;28;20022;-78
2021/08/28 03:19:24;;;;;;;12.75;6.00;;;;;;;;;;4983275;28;20042;-78
2021/08/28 03:21:52;;;;;;;17.27;6.22;;;;;;;;;;4985119;28;20096;-78
2021/08/28 03:24:25;;;;;;;14.63;6.57;;;;;;;;;;4982715;28;20032;-78
2021/08/28 03:26:53;;;;;;;12.70;5.40;;;;;;;;;;4987228;28;20037;-78
2021/08/28 03:29:21;;;;;;;12.98;5.82;;;;;;;;;;4985994;28;20117;-78
2021/08/28 03:31:49;;;;;;;16.27;5.85;;;;;;;;;;4985576;28;20483;-78
2021/08/28 03:34:16;;;;;;;12.32;5.00;;;;;;;;;;4983669;28;20036;-78
2021/08/28 03:36:42;;;;;;;12.30;5.65;;;;;;;;;;4976681;28;20049;-78
2021/08/28 03:39:08;;;;;;;14.75;5.43;;;;;;;;;;4983944;28;20034;-78
2021/08/28 03:41:33;;;;;;;13.68;5.75;;;;;;;;;;4986039;28;20034;-78
2021/08/28 03:43:59;;;;;;;14.00;5.90;;;;;;;;;;4980869;28;20035;-78
2021/08/28 03:46:25;;;;;;;12.10;5.70;;;;;;;;;;4980257;28;20034;-78
2021/08/28 03:48:51;;;;;;;12.02;5.57;;;;;;;;;;4983279;28;20065;-78
2021/08/28 03:51:16;;;;;;;14.13;5.68;;;;;;;;;;4949905;28;20132;-78
2021/08/28 03:53:41;;;;;;;14.77;5.78;;;;;;;;;;4984215;28;20082;-78
2021/08/28 03:56:08;;;;;;;15.20;5.95;;;;;;;;;;4982016;28;20069;-78
2021/08/28 03:58:34;;;;;;;18.48;5.57;;;;;;;;;;4971459;28;20045;-77
2021/08/28 04:01:00;;;;;;;14.60;5.43;;;;;;;;;;4985869;28;20057;-78
2021/08/28 04:03:26;;;;;;;10.65;6.05;;;;;;;;;;4985255;28;20030;-78
2021/08/28 04:05:51;;;;;;;9.82;5.15;;;;;;;;;;4983602;28;20022;-78
2021/08/28 04:08:17;;;;;;;17.35;5.93;;;;;;;;;;4983779;28;20038;-78
2021/08/28 04:10:42;;;;;;;12.35;5.28;;;;;;;;;;4978526;28;20550;-78
2021/08/28 04:13:08;;;;;;;16.13;5.50;;;;;;;;;;4982778;28;20066;-78
2021/08/28 04:15:33;;;;;;;13.48;5.20;;;;;;;;;;4980371;28;20030;-78
2021/08/28 04:17:59;;;;;;;12.75;6.15;;;;;;;;;;4985594;28;20030;-78
2021/08/28 04:20:24;;;;;;;17.08;5.68;;;;;;;;;;4985148;28;20069;-78
2021/08/28 04:22:50;;;;;;;16.60;5.80;;;;;;;;;;4984210;28;20081;-78
2021/08/28 04:25:15;;;;;;;12.45;6.00;;;;;;;;;;4983092;28;20029;-78
2021/08/28 04:27:41;;;;;;;16.98;6.28;;;;;;;;;;4979503;28;20030;-78
2021/08/28 04:30:07;;;;;;;15.00;5.63;;;;;;;;;;4983405;28;20049;-78
2021/08/28 04:32:33;;;;;;;14.35;6.00;;;;;;;;;;4981826;28;20046;-78
2021/08/28 04:34:59;;;;;;;11.98;5.20;;;;;;;;;;4984667;28;20061;-78
2021/08/28 04:37:24;;;;;;;12.75;4.95;;;;;;;;;;4981968;28;20042;-78
2021/08/28 04:39:50;;;;;;;11.05;5.13;;;;;;;;;;4985288;28;20439;-78
2021/08/28 04:42:15;;;;;;;11.07;4.97;;;;;;;;;;4976702;28;20030;-78
2021/08/28 04:44:41;;;;;;;11.50;5.03;;;;;;;;;;4947516;28;20466;-78
2021/08/28 04:47:07;;;;;;;10.35;5.20;;;;;;;;;;4955547;28;20492;-78
2021/08/28 04:49:32;;;;;;;14.05;4.82;;;;;;;;;;4978061;28;20037;-78
2021/08/28 04:51:58;;;;;;;11.30;4.82;;;;;;;;;;4982546;28;20039;-78
2021/08/28 04:54:24;;;;;;;11.02;5.07;;;;;;;;;;4979997;28;20026;-78
2021/08/28 04:56:50;;;;;;;11.18;5.13;;;;;;;;;;4973494;28;20038;-78
2021/08/28 04:59:15;;;;;;;13.52;5.07;;;;;;;;;;4968307;28;20039;-78
2021/08/28 05:01:41;;;;;;;14.38;5.25;;;;;;;;;;4982477;28;20065;-77
2021/08/28 05:04:07;;;;;;;12.63;5.35;;;;;;;;;;4985086;28;20035;-77
2021/08/28 05:06:32;;;;;;;18.98;5.20;;;;;;;;;;4949612;28;20476;-77
2021/08/28 05:08:58;;;;;;;14.18;5.22;;;;;;;;;;4983102;28;20101;-77
2021/08/28 05:11:23;;;;;;;18.25;5.35;;;;;;;;;;4999074;28;20036;-77
2021/08/28 05:13:49;;;;;;;13.48;5.60;;;;;;;;;;4982484;28;20659;-78
2021/08/28 05:16:14;;;;;;;11.68;5.13;;;;;;;;;;4982915;28;20041;-78
2021/08/28 05:18:40;;;;;;;15.85;5.57;;;;;;;;;;4984023;28;20031;-77
2021/08/28 05:21:05;;;;;;;15.63;5.72;;;;;;;;;;4982946;28;20072;-78
2021/08/28 05:23:31;;;;;;;13.40;5.25;;;;;;;;;;4981038;28;20741;-78
2021/08/28 05:25:56;;;;;;;11.20;5.35;;;;;;;;;;4982875;28;20034;-77
2021/08/28 05:28:22;;;;;;;13.32;5.43;;;;;;;;;;4968182;28;20062;-78
2021/08/28 05:30:47;;;;;;;10.98;6.03;;;;;;;;;;4978673;28;20037;-77
2021/08/28 05:33:14;;;;;;;12.63;5.72;;;;;;;;;;4978038;28;20652;-77
2021/08/28 05:35:40;;;;;;;12.60;5.78;;;;;;;;;;4982687;28;20648;-77
2021/08/28 05:38:07;;;;;;;14.32;5.50;;;;;;;;;;4983353;28;20507;-78
2021/08/28 05:40:33;;;;;;;13.50;5.32;;;;;;;;;;4980367;28;20049;-77
2021/08/28 05:42:58;;;;;;;11.57;5.00;;;;;;;;;;4986591;28;20102;-77
2021/08/28 05:45:24;;;;;;;14.40;5.85;;;;;;;;;;4987762;28;20125;-77
2021/08/28 05:47:50;;;;;;;14.07;5.88;;;;;;;;;;4977607;28;20034;-77
2021/08/28 05:50:16;;;;;;;11.55;5.70;;;;;;;;;;4972626;28;20406;-78
2021/08/28 05:52:42;;;;;;;16.20;5.78;;;;;;;;;;4983883;28;20034;-77
2021/08/28 05:55:10;;;;;;;12.93;5.63;;;;;;;;;;4982848;28;20435;-78
2021/08/28 05:57:38;;;;;;;13.90;6.82;;;;;;;;;;4989958;28;20100;-78
2021/08/28 06:00:04;;;;;;;15.55;6.38;;;;;;;;;;4954667;28;20503;-78
2021/08/28 06:02:30;;;;;;;16.33;6.70;;;;;;;;;;4983361;28;20042;-78
2021/08/28 06:04:55;;;;;;;17.23;6.63;;;;;;;;;;4985274;28;20041;-77
2021/08/28 06:07:21;;;;;;;13.52;6.10;;;;;;;;;;4980909;28;20034;-78
2021/08/28 06:09:46;;;;;;;16.05;6.35;;;;;;;;;;4973035;28;20042;-77
2021/08/28 06:12:12;;;;;;;11.48;5.72;;;;;;;;;;4982619;28;20085;-78
2021/08/28 06:14:37;;;;;;;18.60;5.93;;;;;;;;;;4984020;28;20037;-78
2021/08/28 06:17:03;;;;;;;12.57;5.25;;;;;;;;;;4984364;28;20499;-77
2021/08/28 06:19:28;;;;;;;18.10;6.28;;;;;;;;;;4983970;28;20037;-78
2021/08/28 06:21:54;;;;;;;10.90;5.60;;;;;;;;;;4981900;28;20462;-78
2021/08/28 06:24:19;;;;;;;18.73;6.15;;;;;;;;;;4980725;28;20038;-78
2021/08/28 06:26:45;;;;;;;16.10;5.85;;;;;;;;;;4970866;28;20030;-77
2021/08/28 06:29:10;;;;;;;14.50;5.35;;;;;;;;;;4984908;28;20073;-77
2021/08/28 06:31:36;;;;;;;13.35;5.80;;;;;;;;;;4987631;28;20050;-78
2021/08/28 06:34:01;;;;;;;15.65;5.57;;;;;;;;;;5001856;28;20041;-78
2021/08/28 06:36:27;;;;;;;35.15;7.15;;;;;;;;;;4984469;28;20050;-78
2021/08/28 06:38:52;;;;;;;20.05;6.28;;;;;;;;;;4985684;28;20042;-77
2021/08/28 06:41:18;;;;;;;17.13;5.95;;;;;;;;;;4983874;28;20022;-77
2021/08/28 06:43:43;;;;;;;15.32;5.88;;;;;;;;;;4982386;28;20065;-78
2021/08/28 06:46:09;;;;;;;14.10;5.90;;;;;;;;;;4984500;28;20069;-77
2021/08/28 06:48:34;;;;;;;11.75;5.20;;;;;;;;;;4983857;28;20058;-78
2021/08/28 06:51:00;;;;;;;16.08;6.00;;;;;;;;;;4984229;28;20034;-78
2021/08/28 06:53:25;;;;;;;16.50;5.55;;;;;;;;;;4992162;28;20117;-78
2021/08/28 06:55:51;;;;;;;12.52;6.03;;;;;;;;;;4995442;28;20039;-78
2021/08/28 06:58:17;;;;;;;15.20;5.60;;;;;;;;;;4983040;28;20153;-78
2021/08/28 07:00:43;;;;;;;14.77;5.13;;;;;;;;;;4985012;28;20110;-79
2021/08/28 07:03:08;;;;;;;12.75;5.82;;;;;;;;;;4970034;28;20535;-78
2021/08/28 07:05:34;;;;;;;13.73;5.25;;;;;;;;;;4988718;28;20033;-78
2021/08/28 07:07:59;;;;;;;14.38;5.57;;;;;;;;;;4966698;28;20057;-78
2021/08/28 07:10:25;;;;;;;10.90;4.90;;;;;;;;;;4981567;28;20515;-78
2021/08/28 07:12:50;;;;;;;11.10;4.72;;;;;;;;;;4980165;28;20031;-78
2021/08/28 07:15:16;;;;;;;10.52;4.88;;;;;;;;;;4989011;28;20069;-78
2021/08/28 07:17:41;;;;;;;14.25;5.43;;;;;;;;;;4967638;28;20030;-78
2021/08/28 07:20:07;;;;;;;14.10;5.50;;;;;;;;;;4984570;28;20511;-78
2021/08/28 07:22:33;;;;;;;13.02;5.82;;;;;;;;;;4969304;28;20065;-78
2021/08/28 07:24:59;;;;;;;17.33;5.80;;;;;;;;;;4985289;28;20694;-78
2021/08/28 07:27:25;;;;;;;12.85;5.82;;;;;;;;;;4968799;28;20042;-78
2021/08/28 07:29:51;;;;;;;16.90;5.55;;;;;;;;;;4984805;28;20061;-79
2021/08/28 07:32:17;;;;;;;14.05;5.97;;;;;;;;;;4982647;28;20045;-78
2021/08/28 07:34:42;;;;;;;11.52;5.28;;;;;;;;;;4977263;28;20039;-78
2021/08/28 07:37:08;;;;;;;10.75;5.75;;;;;;;;;;4986232;28;20042;-79
2021/08/28 07:39:34;;;;;;;10.35;5.30;;;;;;;;;;4981526;28;20050;-78
2021/08/28 07:42:00;;;;;;;12.77;5.32;;;;;;;;;;4983956;28;20105;-78
2021/08/28 07:44:25;;;;;;;12.52;4.93;;;;;;;;;;4999203;28;20033;-79
2021/08/28 07:46:51;;;;;;;12.65;5.07;;;;;;;;;;4967353;28;20486;-78
2021/08/28 07:49:17;;;;;;;11.38;5.28;;;;;;;;;;4982703;28;20045;-78
2021/08/28 07:51:42;;;;;;;10.27;5.35;;;;;;;;;;4976229;28;20093;-78
2021/08/28 07:54:08;;;;;;;10.02;5.00;;;;;;;;;;4984880;28;20045;-78
2021/08/28 07:56:33;;;;;;;10.13;5.32;;;;;;;;;;4980780;28;20042;-78
2021/08/28 07:58:59;;;;;;;11.10;5.07;;;;;;;;;;4986314;28;20424;-77
2021/08/28 08:01:24;;;;;;;12.98;5.65;;;;;;;;;;4983688;28;20125;-78
2021/08/28 08:03:50;;;;;;;9.95;4.65;;;;;;;;;;4986443;28;20450;-78
2021/08/28 08:06:16;;;;;;;12.95;5.38;;;;;;;;;;4983905;28;20098;-77
2021/08/28 08:08:41;;;;;;;13.10;5.20;;;;;;;;;;4980919;28;20058;-78
2021/08/28 08:11:07;;;;;;;9.57;5.18;;;;;;;;;;4984904;28;20177;-78
2021/08/28 08:13:32;;;;;;;14.05;5.20;;;;;;;;;;4987928;28;20413;-78
2021/08/28 08:15:58;;;;;;;12.25;5.70;;;;;;;;;;4999049;28;20030;-77
2021/08/28 08:18:23;;;;;;;9.25;4.95;;;;;;;;;;4983688;28;20031;-78
2021/08/28 08:20:49;;;;;;;9.73;5.35;;;;;;;;;;4986184;28;20042;-78
2021/08/28 08:23:14;;;;;;;11.52;4.78;;;;;;;;;;4979910;28;20738;-78
2021/08/28 08:25:40;;;;;;;8.63;4.20;;;;;;;;;;4996941;28;20117;-78
2021/08/28 08:28:06;;;;;;;7.43;4.00;;;;;;;;;;4983002;28;20026;-78
2021/08/28 08:30:34;;;;;;;7.20;3.80;;;;;;;;;;4981478;28;20772;-77
2021/08/28 08:33:40;;;;;;;7.88;4.13;;;;;;;;;;4988202;28;20221;-78
2021/08/28 08:36:05;;;;;;;9.73;4.25;;;;;;;;;;4964177;28;20050;-78
2021/08/28 08:38:31;;;;;;;9.88;4.20;;;;;;;;;;4964902;28;20053;-78
2021/08/28 08:40:57;;;;;;;11.18;4.90;;;;;;;;;;4968706;28;20042;-78
2021/08/28 08:43:23;;;;;;;11.50;4.28;;;;;;;;;;4968031;28;20079;-78
2021/08/28 08:45:49;;;;;;;10.88;4.47;;;;;;;;;;4968001;28;20026;-78
2021/08/28 08:48:15;;;;;;;7.38;3.97;;;;;;;;;;4948125;28;20050;-78
2021/08/28 08:50:43;;;;;;;8.35;4.50;;;;;;;;;;4975703;28;20068;-78
2021/08/28 08:53:09;;;;;;;9.05;4.25;;;;;;;;;;4962692;28;20042;-78
2021/08/28 08:55:35;;;;;;;15.10;4.72;;;;;;;;;;4980655;28;20053;-78
2021/08/28 08:58:01;;;;;;;17.77;5.43;;;;;;;;;;4983467;28;20030;-78
2021/08/28 09:00:27;;;;;;;10.07;5.30;;;;;;;;;;4975829;28;20042;-78
2021/08/28 09:02:52;;;;;;;8.70;4.82;;;;;;;;;;4983243;28;20495;-78
2021/08/28 09:05:18;;;;;;;13.75;4.68;;;;;;;;;;4985485;28;20037;-79
2021/08/28 09:07:43;;;;;;;10.63;4.63;;;;;;;;;;4986323;28;20181;-80
2021/08/28 09:10:09;;;;;;;10.10;4.65;;;;;;;;;;4986516;28;20030;-79
2021/08/28 09:12:37;;;;;;;11.48;4.47;;;;;;;;;;4984465;28;20034;-79
2021/08/28 09:15:04;;;;;;;8.73;4.45;;;;;;;;;;4990093;28;20543;-79
2021/08/28 09:17:29;;;;;;;14.52;4.82;;;;;;;;;;4971433;28;20042;-79
2021/08/28 09:19:55;;;;;;;9.32;4.00;;;;;;;;;;4989650;28;20062;-78
2021/08/28 09:22:24;;;;;;;13.57;4.25;;;;;;;;;;4988311;28;20026;-79
2021/08/28 09:24:50;;;;;;;11.70;5.38;;;;;;;;;;4989171;28;20043;-79
2021/08/28 09:27:39;;;;;;;8.63;4.03;;;;;;;;;;4990707;28;20022;-79
2021/08/28 09:30:14;;;;;;;9.77;4.40;;;;;;;;;;4975994;28;20149;-78
2021/08/28 09:32:50;;;;;;;9.95;3.70;;;;;;;;;;4987196;28;20030;-79
2021/08/28 09:35:16;;;;;;;10.52;4.28;;;;;;;;;;4990030;28;20046;-79
2021/08/28 09:37:42;;;;;;;11.20;5.00;;;;;;;;;;4990273;28;20426;-79
2021/08/28 09:40:08;;;;;;;13.82;4.97;;;;;;;;;;4989433;28;20538;-79
2021/08/28 09:42:34;;;;;;;12.38;4.72;;;;;;;;;;4987699;28;20038;-79
2021/08/28 09:45:09;;;;;;;12.40;4.40;;;;;;;;;;4990120;28;20030;-79
2021/08/28 09:47:34;;;;;;;9.35;4.40;;;;;;;;;;4988856;28;20030;-79
2021/08/28 09:50:00;;;;;;;8.82;4.72;;;;;;;;;;4988440;28;20557;-79
2021/08/28 09:52:27;;;;;;;11.10;5.20;;;;;;;;;;4983644;28;20030;-79
2021/08/28 09:54:56;;;;;;;12.20;4.47;;;;;;;;;;4988690;28;20550;-79
2021/08/28 09:57:31;;;;;;;12.18;4.00;;;;;;;;;;4988901;28;20042;-79
2021/08/28 10:00:00;;;;;;;10.95;4.45;;;;;;;;;;4984306;28;20119;-79
2021/08/28 10:02:26;;;;;;;8.65;4.45;;;;;;;;;;4986747;28;20034;-79
2021/08/28 10:04:59;;;;;;;9.73;4.18;;;;;;;;;;4989271;28;20034;-79
2021/08/28 10:07:30;;;;;;;8.15;4.60;;;;;;;;;;4989575;28;20101;-79
2021/08/28 10:10:00;;;;;;;9.00;4.40;;;;;;;;;;4990210;28;20038;-79
2021/08/28 10:12:26;;;;;;;9.38;4.22;;;;;;;;;;4985729;28;20474;-79
2021/08/28 10:14:54;;;;;;;10.63;4.63;;;;;;;;;;4991363;28;20018;-77
2021/08/28 10:17:21;;;;;;;7.80;4.20;;;;;;;;;;4992611;28;20491;-79
2021/08/28 10:19:52;;;;;;;8.80;4.13;;;;;;;;;;4984207;28;20068;-79
2021/08/28 10:22:27;;;;;;;8.05;4.05;;;;;;;;;;4983959;28;20023;-78
2021/08/28 10:24:57;;;;;;;13.75;4.95;;;;;;;;;;4986714;28;20073;-78
2021/08/28 10:27:24;;;;;;;14.63;4.55;;;;;;;;;;4970674;28;20411;-79
2021/08/28 10:29:50;;;;;;;10.10;4.72;;;;;;;;;;4988496;28;20038;-78
2021/08/28 10:32:16;;;;;;;11.40;4.97;;;;;;;;;;4985261;28;20580;-79
2021/08/28 10:34:41;;;;;;;8.65;4.47;;;;;;;;;;4987828;28;20054;-78
2021/08/28 10:37:07;;;;;;;15.85;4.78;;;;;;;;;;4970567;28;20121;-79
2021/08/28 10:39:35;;;;;;;13.73;5.20;;;;;;;;;;4972437;28;20030;-79
2021/08/28 10:42:01;;;;;;;10.73;4.75;;;;;;;;;;4987025;28;20022;-78
2021/08/28 10:44:27;;;;;;;11.30;4.22;;;;;;;;;;4985102;28;20391;-79
2021/08/28 10:46:53;;;;;;;13.07;4.15;;;;;;;;;;4985548;28;20442;-79
2021/08/28 10:49:22;;;;;;;13.63;4.45;;;;;;;;;;4987328;28;20038;-79
2021/08/28 10:51:53;;;;;;;11.93;4.95;;;;;;;;;;4971451;28;20569;-80
2021/08/28 10:54:23;;;;;;;13.52;4.95;;;;;;;;;;4984385;28;20026;-79
2021/08/28 10:56:55;;;;;;;12.55;4.65;;;;;;;;;;4971060;28;20038;-79
2021/08/28 10:59:24;;;;;;;12.88;4.32;;;;;;;;;;4984055;28;20022;-79
2021/08/28 11:02:06;;;;;;;9.43;4.25;;;;;;;;;;4987137;28;20034;-79
2021/08/28 11:04:34;;;;;;;10.57;4.35;;;;;;;;;;4981256;28;20022;-79
2021/08/28 11:07:27;;;;;;;12.25;4.40;;;;;;;;;;4981271;28;20034;-78
2021/08/28 11:10:08;;;;;;;13.38;4.70;;;;;;;;;;4955376;28;20142;-78
2021/08/28 11:12:47;;;;;;;9.43;4.50;;;;;;;;;;4989104;28;20084;-78
2021/08/28 11:15:24;;;;;;;9.00;4.53;;;;;;;;;;4979713;28;20064;-79
2021/08/28 11:17:54;;;;;;;11.32;4.38;;;;;;;;;;4982005;28;20523;-78
2021/08/28 11:20:43;;;;;;;7.47;3.83;;;;;;;;;;4985227;28;20030;-78
2021/08/28 11:23:15;;;;;;;13.73;4.60;;;;;;;;;;4985838;28;20094;-78
2021/08/28 11:25:46;;;;;;;14.57;4.38;;;;;;;;;;4986891;28;20026;-78
2021/08/28 11:28:13;;;;;;;10.53;4.30;;;;;;;;;;4987022;28;20042;-78
2021/08/28 11:30:53;;;;;;;12.30;4.30;;;;;;;;;;4985297;28;20295;-78
2021/08/28 11:33:19;;;;;;;10.55;3.97;;;;;;;;;;4985008;28;20026;-77
2021/08/28 11:35:54;;;;;;;9.40;3.92;;;;;;;;;;4985472;28;20514;-78
2021/08/28 11:38:26;;;;;;;11.32;3.60;;;;;;;;;;4988445;28;20030;-78
2021/08/28 11:41:01;;;;;;;;;;;;;;;;;;4974024;28;20403;-78
2021/08/28 11:43:39;;;;;;;7.93;3.63;;;;;;;;;;4985030;28;19917;-79
2021/08/28 11:46:16;;;;;;;9.75;3.80;;;;;;;;;;4988506;28;20093;-78
2021/08/28 11:48:46;;;;;;;10.90;3.90;;;;;;;;;;4984669;28;20041;-79
2021/08/28 11:51:25;;;;;;;7.57;2.80;;;;;;;;;;4985832;28;20553;-80
2021/08/28 11:53:55;;;;;;;8.38;3.90;;;;;;;;;;4983132;28;20064;-79
2021/08/28 11:56:23;;;;;;;15.18;3.72;;;;;;;;;;4984639;28;20137;-79
2021/08/28 11:58:49;;;;;;;8.10;3.33;;;;;;;;;;4981968;28;20089;-79
2021/08/28 12:01:35;;;;;;;10.43;3.75;;;;;;;;;;4987168;28;20026;-79
2021/08/28 12:04:19;;;;;;;8.63;3.40;;;;;;;;;;4982888;28;20561;-79
2021/08/28 12:06:51;;;;;;;11.52;3.58;;;;;;;;;;4984717;28;20093;-80
2021/08/28 12:09:16;;;;;;;11.57;3.78;;;;;;;;;;4984305;28;20032;-80
2021/08/28 12:11:49;;;;;;;7.65;3.00;;;;;;;;;;4984099;28;20105;-80
2021/08/28 12:14:16;;;;;;;11.55;3.13;;;;;;;;;;4981010;28;20084;-80
2021/08/28 12:16:43;;;;;;;7.45;3.10;;;;;;;;;;4981597;28;20042;-81
2021/08/28 12:19:18;;;;;;;8.13;3.30;;;;;;;;;;4978245;28;20129;-81
2021/08/28 12:21:52;;;;;;;6.93;2.97;;;;;;;;;;4976045;28;20125;-79
2021/08/28 12:24:25;;;;;;;3.97;2.70;;;;;;;;;;4980269;28;20027;-80
2021/08/28 12:26:56;;;;;;;10.63;3.05;;;;;;;;;;4983546;28;20030;-79
2021/08/28 12:29:33;;;;;;;7.68;3.50;;;;;;;;;;4979274;28;20358;-81
2021/08/28 12:32:06;;;;;;;11.13;3.28;;;;;;;;;;4984235;28;20026;-81
2021/08/28 12:34:36;;;;;;;7.05;3.15;;;;;;;;;;4983736;28;20042;-80
2021/08/28 12:37:04;;;;;;;13.23;3.10;;;;;;;;;;4995938;28;20052;-79
2021/08/28 12:39:30;;;;;;;8.82;2.85;;;;;;;;;;4986779;28;20030;-79
2021/08/28 12:41:57;;;;;;;7.00;2.92;;;;;;;;;;4985703;28;20096;-78
2021/08/28 12:44:24;;;;;;;7.38;3.25;;;;;;;;;;4983741;28;20042;-79
2021/08/28 12:46:51;;;;;;;6.18;2.75;;;;;;;;;;4986403;28;20066;-78
2021/08/28 12:49:20;;;;;;;6.55;2.83;;;;;;;;;;4985762;28;20026;-78
2021/08/28 12:52:00;;;;;;;7.88;3.22;;;;;;;;;;4984100;28;20040;-78
2021/08/28 12:54:32;;;;;;;7.38;2.78;;;;;;;;;;4984389;28;20018;-79
2021/08/28 12:57:09;;;;;;;8.00;2.85;;;;;;;;;;4985118;28;20022;-78
2021/08/28 12:59:52;;;;;;;5.78;2.42;;;;;;;;;;4984710;28;20034;-78
2021/08/28 13:02:21;;;;;;;7.80;2.63;;;;;;;;;;4983030;28;20034;-79
2021/08/28 13:04:48;;;;;;;9.10;2.92;;;;;;;;;;4985465;28;20026;-79
2021/08/28 13:07:15;;;;;;;6.38;3.17;;;;;;;;;;4985073;28;20081;-78
2021/08/28 13:10:05;;;;;;;7.43;3.45;;;;;;;;;;4982734;28;20026;-79
2021/08/28 13:12:57;;;;;;;9.10;2.70;;;;;;;;;;4987022;28;20583;-79
2021/08/28 13:15:28;;;;;;;7.45;2.90;;;;;;;;;;4985608;28;20022;-78
2021/08/28 13:18:05;;;;;;;5.13;2.90;;;;;;;;;;4986679;28;20065;-80
2021/08/28 13:20:33;;;;;;;6.20;2.40;;;;;;;;;;4987388;28;20022;-79
2021/08/28 13:23:32;;;;;;;7.13;3.15;;;;;;;;;;4984998;28;20069;-80
2021/08/28 13:26:03;;;;;;;8.48;3.20;;;;;;;;;;4982517;28;20070;-80
2021/08/28 13:28:31;;;;;;;5.82;2.85;;;;;;;;;;4985415;28;20089;-79
2021/08/28 13:31:14;;;;;;;8.18;2.97;;;;;;;;;;4986882;28;20443;-79
2021/08/28 13:33:40;;;;;;;10.80;2.90;;;;;;;;;;4986902;28;20030;-78
2021/08/28 13:36:05;;;;;;;9.60;3.38;;;;;;;;;;4986788;28;20505;-79
2021/08/28 13:38:36;;;;;;;8.45;3.10;;;;;;;;;;4982968;28;20038;-79
2021/08/28 13:41:03;;;;;;;10.80;3.47;;;;;;;;;;4986709;28;20136;-79
2021/08/28 13:43:29;;;;;;;8.05;3.22;;;;;;;;;;4986210;28;20026;-79
2021/08/28 13:45:57;;;;;;;9.02;3.42;;;;;;;;;;4986855;28;20030;-79
2021/08/28 13:48:23;;;;;;;5.72;3.00;;;;;;;;;;4981375;28;20039;-78
2021/08/28 13:50:48;;;;;;;7.97;3.40;;;;;;;;;;4981862;28;20041;-80
2021/08/28 13:53:14;;;;;;;7.80;2.92;;;;;;;;;;4986402;28;20034;-79
2021/08/28 13:55:43;;;;;;;6.40;3.05;;;;;;;;;;4985134;28;20037;-78
2021/08/28 13:58:09;;;;;;;6.22;2.88;;;;;;;;;;4982988;28;20483;-78
2021/08/28 14:00:35;;;;;;;10.38;3.13;;;;;;;;;;4984794;28;20062;-78
2021/08/28 14:03:01;;;;;;;7.53;3.13;;;;;;;;;;4987082;28;20058;-78
2021/08/28 14:05:27;;;;;;;4.82;2.55;;;;;;;;;;4988390;28;20719;-79
2021/08/28 14:07:52;;;;;;;7.18;3.10;;;;;;;;;;4983835;28;20506;-78
2021/08/28 14:10:18;;;;;;;8.38;3.17;;;;;;;;;;5014005;28;20023;-78
2021/08/28 14:12:45;;;;;;;7.10;2.95;;;;;;;;;;4987509;28;20049;-78
2021/08/28 14:15:14;;;;;;;5.30;2.90;;;;;;;;;;4988540;28;20030;-78
2021/08/28 14:17:39;;;;;;;4.57;2.92;;;;;;;;;;4986807;28;20034;-77
2021/08/28 14:20:08;;;;;;;6.80;2.95;;;;;;;;;;4971996;28;20034;-80
2021/08/28 14:22:34;;;;;;;10.63;3.33;;;;;;;;;;4984717;28;20108;-77
2021/08/28 14:25:00;;;;;;;5.70;2.92;;;;;;;;;;4987507;28;20027;-77
2021/08/28 14:27:26;;;;;;;6.72;3.13;;;;;;;;;;4988095;28;20050;-78
2021/08/28 14:29:51;;;;;;;6.40;3.17;;;;;;;;;;4986953;28;20120;-78
2021/08/28 14:32:17;;;;;;;7.72;3.45;;;;;;;;;;4987896;28;20504;-78
2021/08/28 14:34:43;;;;;;;5.55;3.00;;;;;;;;;;5013021;28;20587;-77
2021/08/28 14:37:09;;;;;;;7.85;3.08;;;;;;;;;;4984813;28;20035;-78
2021/08/28 14:39:35;;;;;;;6.32;2.92;;;;;;;;;;4988300;28;20100;-79